馬祖南竿航空站 - ATIS

METAR RCFG 211100Z 23015KT 9999 FEW012 SCT200 21/19 Q1014 NOSIG RMK 24012G23KT/R03 MAX WND 24KT/R21 21018G30KT/NJL A2996(F)=

站台狀態:Online
最後更新:2024-02-21 19:30:01